sensor_id;sensor_type;location;lat;lon;timestamp;P1;durP1;ratioP1;P2;durP2;ratioP2
5058;SDS011;2548;52.050;11.036;2023-11-19T00:01:54;2.63;;;2.53;;
5058;SDS011;2548;52.050;11.036;2023-11-19T00:04:25;1.67;;;1.58;;
5058;SDS011;2548;52.050;11.036;2023-11-19T00:06:52;2.00;;;1.90;;
5058;SDS011;2548;52.050;11.036;2023-11-19T00:09:21;1.85;;;1.75;;
5058;SDS011;2548;52.050;11.036;2023-11-19T00:11:58;2.00;;;1.90;;
5058;SDS011;2548;52.050;11.036;2023-11-19T00:14:29;1.88;;;1.58;;
5058;SDS011;2548;52.050;11.036;2023-11-19T00:16:57;1.60;;;1.55;;
5058;SDS011;2548;52.050;11.036;2023-11-19T00:19:25;1.80;;;1.80;;
5058;SDS011;2548;52.050;11.036;2023-11-19T00:21:55;1.83;;;1.83;;
5058;SDS011;2548;52.050;11.036;2023-11-19T00:24:26;1.60;;;1.60;;
5058;SDS011;2548;52.050;11.036;2023-11-19T00:26:59;1.80;;;1.80;;
5058;SDS011;2548;52.050;11.036;2023-11-19T00:29:29;1.50;;;1.50;;
5058;SDS011;2548;52.050;11.036;2023-11-19T00:32:03;2.58;;;1.80;;
5058;SDS011;2548;52.050;11.036;2023-11-19T00:34:33;1.52;;;1.52;;
5058;SDS011;2548;52.050;11.036;2023-11-19T00:37:00;1.60;;;1.60;;
5058;SDS011;2548;52.050;11.036;2023-11-19T00:39:30;1.58;;;1.48;;
5058;SDS011;2548;52.050;11.036;2023-11-19T00:41:58;1.77;;;1.67;;
5058;SDS011;2548;52.050;11.036;2023-11-19T00:44:25;1.20;;;1.20;;
5058;SDS011;2548;52.050;11.036;2023-11-19T00:46:55;1.20;;;1.20;;
5058;SDS011;2548;52.050;11.036;2023-11-19T00:49:26;1.27;;;1.10;;
5058;SDS011;2548;52.050;11.036;2023-11-19T00:51:56;0.75;;;0.75;;
5058;SDS011;2548;52.050;11.036;2023-11-19T00:54:27;1.65;;;1.25;;
5058;SDS011;2548;52.050;11.036;2023-11-19T00:56:56;2.80;;;1.00;;
5058;SDS011;2548;52.050;11.036;2023-11-19T00:59:27;0.50;;;0.50;;
5058;SDS011;2548;52.050;11.036;2023-11-19T01:01:55;0.52;;;0.52;;
5058;SDS011;2548;52.050;11.036;2023-11-19T01:04:26;0.60;;;0.60;;
5058;SDS011;2548;52.050;11.036;2023-11-19T01:06:54;0.60;;;0.60;;
5058;SDS011;2548;52.050;11.036;2023-11-19T01:09:24;1.00;;;0.93;;
5058;SDS011;2548;52.050;11.036;2023-11-19T01:11:53;0.45;;;0.45;;
5058;SDS011;2548;52.050;11.036;2023-11-19T01:14:26;0.60;;;0.60;;
5058;SDS011;2548;52.050;11.036;2023-11-19T01:16:57;0.60;;;0.60;;
5058;SDS011;2548;52.050;11.036;2023-11-19T01:19:24;0.60;;;0.60;;
5058;SDS011;2548;52.050;11.036;2023-11-19T01:21:57;0.70;;;0.70;;
5058;SDS011;2548;52.050;11.036;2023-11-19T01:24:24;0.50;;;0.50;;
5058;SDS011;2548;52.050;11.036;2023-11-19T01:26:54;0.50;;;0.50;;
5058;SDS011;2548;52.050;11.036;2023-11-19T01:29:27;0.90;;;0.90;;
5058;SDS011;2548;52.050;11.036;2023-11-19T01:31:54;0.88;;;0.88;;
5058;SDS011;2548;52.050;11.036;2023-11-19T01:34:25;0.50;;;0.50;;
5058;SDS011;2548;52.050;11.036;2023-11-19T01:36:52;1.88;;;0.73;;
5058;SDS011;2548;52.050;11.036;2023-11-19T01:39:20;0.70;;;0.70;;
5058;SDS011;2548;52.050;11.036;2023-11-19T01:41:47;0.50;;;0.50;;
5058;SDS011;2548;52.050;11.036;2023-11-19T01:44:15;0.40;;;0.40;;
5058;SDS011;2548;52.050;11.036;2023-11-19T01:46:44;0.70;;;0.70;;
5058;SDS011;2548;52.050;11.036;2023-11-19T01:49:14;0.60;;;0.60;;
5058;SDS011;2548;52.050;11.036;2023-11-19T01:51:43;0.70;;;0.70;;
5058;SDS011;2548;52.050;11.036;2023-11-19T01:54:11;0.70;;;0.70;;
5058;SDS011;2548;52.050;11.036;2023-11-19T01:56:41;1.50;;;0.50;;
5058;SDS011;2548;52.050;11.036;2023-11-19T01:59:09;0.50;;;0.50;;
5058;SDS011;2548;52.050;11.036;2023-11-19T02:01:39;8.48;;;0.57;;
5058;SDS011;2548;52.050;11.036;2023-11-19T02:04:08;0.82;;;0.60;;
5058;SDS011;2548;52.050;11.036;2023-11-19T02:06:38;0.60;;;0.60;;
5058;SDS011;2548;52.050;11.036;2023-11-19T02:09:09;0.63;;;0.63;;
5058;SDS011;2548;52.050;11.036;2023-11-19T02:11:36;0.60;;;0.60;;
5058;SDS011;2548;52.050;11.036;2023-11-19T02:14:06;0.60;;;0.60;;
5058;SDS011;2548;52.050;11.036;2023-11-19T02:16:37;0.50;;;0.50;;
5058;SDS011;2548;52.050;11.036;2023-11-19T02:19:09;0.50;;;0.50;;
5058;SDS011;2548;52.050;11.036;2023-11-19T02:21:40;0.50;;;0.50;;
5058;SDS011;2548;52.050;11.036;2023-11-19T02:24:11;0.50;;;0.50;;
5058;SDS011;2548;52.050;11.036;2023-11-19T02:26:44;0.68;;;0.68;;
5058;SDS011;2548;52.050;11.036;2023-11-19T02:29:22;0.50;;;0.50;;
5058;SDS011;2548;52.050;11.036;2023-11-19T02:31:50;0.50;;;0.50;;
5058;SDS011;2548;52.050;11.036;2023-11-19T02:34:17;0.60;;;0.60;;
5058;SDS011;2548;52.050;11.036;2023-11-19T02:36:45;0.50;;;0.50;;
5058;SDS011;2548;52.050;11.036;2023-11-19T02:39:29;0.50;;;0.50;;
5058;SDS011;2548;52.050;11.036;2023-11-19T02:41:57;1.02;;;0.50;;
5058;SDS011;2548;52.050;11.036;2023-11-19T02:44:26;0.63;;;0.63;;
5058;SDS011;2548;52.050;11.036;2023-11-19T02:46:56;1.00;;;0.73;;
5058;SDS011;2548;52.050;11.036;2023-11-19T02:49:25;0.50;;;0.50;;
5058;SDS011;2548;52.050;11.036;2023-11-19T02:51:58;1.30;;;0.60;;
5058;SDS011;2548;52.050;11.036;2023-11-19T02:54:26;0.65;;;0.65;;
5058;SDS011;2548;52.050;11.036;2023-11-19T02:56:53;0.60;;;0.60;;
5058;SDS011;2548;52.050;11.036;2023-11-19T02:59:26;0.60;;;0.60;;
5058;SDS011;2548;52.050;11.036;2023-11-19T03:02:09;2.03;;;0.68;;
5058;SDS011;2548;52.050;11.036;2023-11-19T03:04:37;0.60;;;0.60;;
5058;SDS011;2548;52.050;11.036;2023-11-19T03:07:14;0.60;;;0.57;;
5058;SDS011;2548;52.050;11.036;2023-11-19T03:09:43;1.67;;;0.50;;
5058;SDS011;2548;52.050;11.036;2023-11-19T03:12:11;1.00;;;0.90;;
5058;SDS011;2548;52.050;11.036;2023-11-19T03:14:56;1.55;;;0.40;;
5058;SDS011;2548;52.050;11.036;2023-11-19T03:17:26;0.57;;;0.57;;
5058;SDS011;2548;52.050;11.036;2023-11-19T03:19:57;0.50;;;0.50;;
5058;SDS011;2548;52.050;11.036;2023-11-19T03:22:28;0.60;;;0.60;;
5058;SDS011;2548;52.050;11.036;2023-11-19T03:24:55;0.60;;;0.60;;
5058;SDS011;2548;52.050;11.036;2023-11-19T03:27:23;0.60;;;0.40;;
5058;SDS011;2548;52.050;11.036;2023-11-19T03:29:50;0.80;;;0.80;;
5058;SDS011;2548;52.050;11.036;2023-11-19T03:32:19;0.85;;;0.52;;
5058;SDS011;2548;52.050;11.036;2023-11-19T03:34:49;0.75;;;0.60;;
5058;SDS011;2548;52.050;11.036;2023-11-19T03:37:19;0.50;;;0.50;;
5058;SDS011;2548;52.050;11.036;2023-11-19T03:39:56;0.77;;;0.63;;
5058;SDS011;2548;52.050;11.036;2023-11-19T03:42:30;1.05;;;0.52;;
5058;SDS011;2548;52.050;11.036;2023-11-19T03:44:57;1.23;;;0.55;;
5058;SDS011;2548;52.050;11.036;2023-11-19T03:47:27;0.50;;;0.50;;
5058;SDS011;2548;52.050;11.036;2023-11-19T03:49:55;0.50;;;0.50;;
5058;SDS011;2548;52.050;11.036;2023-11-19T03:52:25;2.15;;;0.50;;
5058;SDS011;2548;52.050;11.036;2023-11-19T03:54:53;0.70;;;0.57;;
5058;SDS011;2548;52.050;11.036;2023-11-19T03:57:27;0.57;;;0.40;;
5058;SDS011;2548;52.050;11.036;2023-11-19T03:59:55;0.50;;;0.50;;
5058;SDS011;2548;52.050;11.036;2023-11-19T04:02:26;0.60;;;0.60;;
5058;SDS011;2548;52.050;11.036;2023-11-19T04:04:55;0.50;;;0.50;;
5058;SDS011;2548;52.050;11.036;2023-11-19T04:07:25;0.57;;;0.57;;
5058;SDS011;2548;52.050;11.036;2023-11-19T04:09:53;0.50;;;0.50;;
5058;SDS011;2548;52.050;11.036;2023-11-19T04:12:30;0.85;;;0.75;;
5058;SDS011;2548;52.050;11.036;2023-11-19T04:14:58;0.60;;;0.60;;
5058;SDS011;2548;52.050;11.036;2023-11-19T04:17:41;1.90;;;0.60;;
5058;SDS011;2548;52.050;11.036;2023-11-19T04:20:09;0.75;;;0.60;;
5058;SDS011;2548;52.050;11.036;2023-11-19T04:22:51;4.20;;;1.02;;
5058;SDS011;2548;52.050;11.036;2023-11-19T04:25:19;2.42;;;1.90;;
5058;SDS011;2548;52.050;11.036;2023-11-19T04:27:52;0.70;;;0.70;;
5058;SDS011;2548;52.050;11.036;2023-11-19T04:30:20;5.20;;;1.17;;
5058;SDS011;2548;52.050;11.036;2023-11-19T04:32:50;1.15;;;0.90;;
5058;SDS011;2548;52.050;11.036;2023-11-19T04:35:26;2.25;;;0.50;;
5058;SDS011;2548;52.050;11.036;2023-11-19T04:37:53;0.50;;;0.50;;
5058;SDS011;2548;52.050;11.036;2023-11-19T04:40:23;0.60;;;0.60;;
5058;SDS011;2548;52.050;11.036;2023-11-19T04:42:50;1.05;;;0.50;;
5058;SDS011;2548;52.050;11.036;2023-11-19T04:45:26;1.60;;;0.90;;
5058;SDS011;2548;52.050;11.036;2023-11-19T04:47:57;1.63;;;1.17;;
5058;SDS011;2548;52.050;11.036;2023-11-19T04:50:25;1.50;;;0.60;;
5058;SDS011;2548;52.050;11.036;2023-11-19T04:52:52;1.58;;;0.73;;
5058;SDS011;2548;52.050;11.036;2023-11-19T04:55:23;1.02;;;0.70;;
5058;SDS011;2548;52.050;11.036;2023-11-19T04:57:50;0.60;;;0.60;;
5058;SDS011;2548;52.050;11.036;2023-11-19T05:00:21;2.25;;;0.82;;
5058;SDS011;2548;52.050;11.036;2023-11-19T05:02:48;0.52;;;0.52;;
5058;SDS011;2548;52.050;11.036;2023-11-19T05:05:17;0.85;;;0.85;;
5058;SDS011;2548;52.050;11.036;2023-11-19T05:07:45;1.30;;;0.85;;
5058;SDS011;2548;52.050;11.036;2023-11-19T05:10:12;1.02;;;1.02;;
5058;SDS011;2548;52.050;11.036;2023-11-19T05:12:40;3.83;;;1.13;;
5058;SDS011;2548;52.050;11.036;2023-11-19T05:15:08;0.90;;;0.90;;
5058;SDS011;2548;52.050;11.036;2023-11-19T05:17:40;3.65;;;1.02;;
5058;SDS011;2548;52.050;11.036;2023-11-19T05:20:08;1.48;;;1.20;;
5058;SDS011;2548;52.050;11.036;2023-11-19T05:22:40;1.45;;;1.35;;
5058;SDS011;2548;52.050;11.036;2023-11-19T05:25:08;0.80;;;0.80;;
5058;SDS011;2548;52.050;11.036;2023-11-19T05:27:36;3.20;;;1.48;;
5058;SDS011;2548;52.050;11.036;2023-11-19T05:30:12;1.70;;;1.60;;
5058;SDS011;2548;52.050;11.036;2023-11-19T05:32:45;1.70;;;1.33;;
5058;SDS011;2548;52.050;11.036;2023-11-19T05:35:19;3.35;;;1.35;;
5058;SDS011;2548;52.050;11.036;2023-11-19T05:37:50;1.50;;;1.40;;
5058;SDS011;2548;52.050;11.036;2023-11-19T05:40:18;1.15;;;1.00;;
5058;SDS011;2548;52.050;11.036;2023-11-19T05:42:52;1.00;;;1.00;;
5058;SDS011;2548;52.050;11.036;2023-11-19T05:45:19;1.20;;;1.10;;
5058;SDS011;2548;52.050;11.036;2023-11-19T05:47:47;1.40;;;1.27;;
5058;SDS011;2548;52.050;11.036;2023-11-19T05:50:14;2.78;;;0.75;;
5058;SDS011;2548;52.050;11.036;2023-11-19T05:52:52;1.60;;;0.90;;
5058;SDS011;2548;52.050;11.036;2023-11-19T05:55:19;1.50;;;0.57;;
5058;SDS011;2548;52.050;11.036;2023-11-19T05:57:58;0.70;;;0.70;;
5058;SDS011;2548;52.050;11.036;2023-11-19T06:00:25;2.35;;;0.90;;
5058;SDS011;2548;52.050;11.036;2023-11-19T06:02:56;1.00;;;0.90;;
5058;SDS011;2548;52.050;11.036;2023-11-19T06:05:23;0.73;;;0.73;;
5058;SDS011;2548;52.050;11.036;2023-11-19T06:07:52;2.75;;;0.93;;
5058;SDS011;2548;52.050;11.036;2023-11-19T06:10:22;1.10;;;0.80;;
5058;SDS011;2548;52.050;11.036;2023-11-19T06:12:55;2.15;;;0.90;;
5058;SDS011;2548;52.050;11.036;2023-11-19T06:15:23;1.35;;;1.15;;
5058;SDS011;2548;52.050;11.036;2023-11-19T06:17:53;1.10;;;1.05;;
5058;SDS011;2548;52.050;11.036;2023-11-19T06:20:25;1.10;;;1.00;;
5058;SDS011;2548;52.050;11.036;2023-11-19T06:22:57;2.08;;;1.25;;
5058;SDS011;2548;52.050;11.036;2023-11-19T06:25:25;5.55;;;1.60;;
5058;SDS011;2548;52.050;11.036;2023-11-19T06:27:56;2.08;;;1.35;;
5058;SDS011;2548;52.050;11.036;2023-11-19T06:30:26;8.18;;;1.00;;
5058;SDS011;2548;52.050;11.036;2023-11-19T06:32:57;2.03;;;1.50;;
5058;SDS011;2548;52.050;11.036;2023-11-19T06:35:25;5.25;;;2.13;;
5058;SDS011;2548;52.050;11.036;2023-11-19T06:37:55;2.35;;;1.30;;
5058;SDS011;2548;52.050;11.036;2023-11-19T06:40:27;9.68;;;1.70;;
5058;SDS011;2548;52.050;11.036;2023-11-19T06:42:55;4.20;;;1.52;;
5058;SDS011;2548;52.050;11.036;2023-11-19T06:45:22;3.60;;;1.60;;
5058;SDS011;2548;52.050;11.036;2023-11-19T06:47:56;12.13;;;2.13;;
5058;SDS011;2548;52.050;11.036;2023-11-19T06:50:24;3.03;;;1.70;;
5058;SDS011;2548;52.050;11.036;2023-11-19T06:52:51;8.05;;;1.75;;
5058;SDS011;2548;52.050;11.036;2023-11-19T06:55:23;6.38;;;1.70;;
5058;SDS011;2548;52.050;11.036;2023-11-19T06:57:51;3.95;;;2.20;;
5058;SDS011;2548;52.050;11.036;2023-11-19T07:00:18;6.22;;;2.00;;
5058;SDS011;2548;52.050;11.036;2023-11-19T07:02:58;9.45;;;2.33;;
5058;SDS011;2548;52.050;11.036;2023-11-19T07:05:26;15.40;;;3.28;;
5058;SDS011;2548;52.050;11.036;2023-11-19T07:07:55;5.88;;;2.50;;
5058;SDS011;2548;52.050;11.036;2023-11-19T07:10:26;8.38;;;2.30;;
5058;SDS011;2548;52.050;11.036;2023-11-19T07:12:55;6.90;;;2.45;;
5058;SDS011;2548;52.050;11.036;2023-11-19T07:15:23;8.10;;;2.55;;
5058;SDS011;2548;52.050;11.036;2023-11-19T07:17:50;9.38;;;2.30;;
5058;SDS011;2548;52.050;11.036;2023-11-19T07:20:25;8.05;;;2.10;;
5058;SDS011;2548;52.050;11.036;2023-11-19T07:22:53;4.65;;;2.20;;
5058;SDS011;2548;52.050;11.036;2023-11-19T07:25:25;4.75;;;1.95;;
5058;SDS011;2548;52.050;11.036;2023-11-19T07:27:52;11.70;;;3.03;;
5058;SDS011;2548;52.050;11.036;2023-11-19T07:30:22;14.63;;;3.42;;
5058;SDS011;2548;52.050;11.036;2023-11-19T07:32:50;9.57;;;2.20;;
5058;SDS011;2548;52.050;11.036;2023-11-19T07:35:25;11.30;;;2.40;;
5058;SDS011;2548;52.050;11.036;2023-11-19T07:37:55;5.53;;;1.40;;
5058;SDS011;2548;52.050;11.036;2023-11-19T07:40:27;6.88;;;2.20;;
5058;SDS011;2548;52.050;11.036;2023-11-19T07:42:54;9.05;;;2.45;;
5058;SDS011;2548;52.050;11.036;2023-11-19T07:45:22;9.57;;;2.22;;
5058;SDS011;2548;52.050;11.036;2023-11-19T07:47:53;6.65;;;2.40;;
5058;SDS011;2548;52.050;11.036;2023-11-19T07:50:23;9.40;;;3.20;;
5058;SDS011;2548;52.050;11.036;2023-11-19T07:52:51;10.25;;;3.15;;
5058;SDS011;2548;52.050;11.036;2023-11-19T07:55:27;11.57;;;2.53;;
5058;SDS011;2548;52.050;11.036;2023-11-19T07:57:56;4.35;;;2.38;;
5058;SDS011;2548;52.050;11.036;2023-11-19T08:00:26;7.65;;;2.97;;
5058;SDS011;2548;52.050;11.036;2023-11-19T08:02:53;13.52;;;3.55;;
5058;SDS011;2548;52.050;11.036;2023-11-19T08:05:24;15.85;;;4.50;;
5058;SDS011;2548;52.050;11.036;2023-11-19T08:07:51;9.10;;;3.92;;
5058;SDS011;2548;52.050;11.036;2023-11-19T08:10:19;9.32;;;3.95;;
5058;SDS011;2548;52.050;11.036;2023-11-19T08:12:54;10.27;;;3.10;;
5058;SDS011;2548;52.050;11.036;2023-11-19T08:15:21;8.82;;;5.63;;
5058;SDS011;2548;52.050;11.036;2023-11-19T08:17:49;8.57;;;3.35;;
5058;SDS011;2548;52.050;11.036;2023-11-19T08:20:16;5.03;;;2.63;;
5058;SDS011;2548;52.050;11.036;2023-11-19T08:22:44;14.13;;;3.47;;
5058;SDS011;2548;52.050;11.036;2023-11-19T08:25:11;12.85;;;3.08;;
5058;SDS011;2548;52.050;11.036;2023-11-19T08:27:40;13.55;;;3.85;;
5058;SDS011;2548;52.050;11.036;2023-11-19T08:30:14;7.00;;;3.78;;
5058;SDS011;2548;52.050;11.036;2023-11-19T08:32:42;8.32;;;2.83;;
5058;SDS011;2548;52.050;11.036;2023-11-19T08:35:09;17.30;;;4.05;;
5058;SDS011;2548;52.050;11.036;2023-11-19T08:37:37;10.98;;;4.43;;
5058;SDS011;2548;52.050;11.036;2023-11-19T08:40:05;16.90;;;4.40;;
5058;SDS011;2548;52.050;11.036;2023-11-19T08:42:33;13.63;;;3.33;;
5058;SDS011;2548;52.050;11.036;2023-11-19T08:45:04;11.77;;;3.88;;
5058;SDS011;2548;52.050;11.036;2023-11-19T08:47:32;17.33;;;4.45;;
5058;SDS011;2548;52.050;11.036;2023-11-19T08:50:00;17.33;;;4.25;;
5058;SDS011;2548;52.050;11.036;2023-11-19T08:52:27;17.08;;;5.43;;
5058;SDS011;2548;52.050;11.036;2023-11-19T08:54:55;16.25;;;3.60;;
5058;SDS011;2548;52.050;11.036;2023-11-19T08:57:22;16.20;;;3.83;;
5058;SDS011;2548;52.050;11.036;2023-11-19T08:59:50;12.95;;;3.47;;
5058;SDS011;2548;52.050;11.036;2023-11-19T09:02:22;20.88;;;4.45;;
5058;SDS011;2548;52.050;11.036;2023-11-19T09:04:50;17.55;;;5.82;;
5058;SDS011;2548;52.050;11.036;2023-11-19T09:07:17;16.40;;;6.28;;
5058;SDS011;2548;52.050;11.036;2023-11-19T09:09:48;23.00;;;5.13;;
5058;SDS011;2548;52.050;11.036;2023-11-19T09:12:20;24.95;;;6.50;;
5058;SDS011;2548;52.050;11.036;2023-11-19T09:14:51;21.73;;;4.90;;
5058;SDS011;2548;52.050;11.036;2023-11-19T09:17:22;28.60;;;6.82;;
5058;SDS011;2548;52.050;11.036;2023-11-19T09:19:49;31.88;;;6.03;;
5058;SDS011;2548;52.050;11.036;2023-11-19T09:22:17;14.68;;;4.60;;
5058;SDS011;2548;52.050;11.036;2023-11-19T09:24:44;20.13;;;5.68;;
5058;SDS011;2548;52.050;11.036;2023-11-19T09:27:13;14.68;;;4.60;;
5058;SDS011;2548;52.050;11.036;2023-11-19T09:29:41;23.70;;;5.57;;
5058;SDS011;2548;52.050;11.036;2023-11-19T09:32:14;16.75;;;5.40;;
5058;SDS011;2548;52.050;11.036;2023-11-19T09:34:45;21.08;;;6.35;;
5058;SDS011;2548;52.050;11.036;2023-11-19T09:37:19;22.58;;;5.30;;
5058;SDS011;2548;52.050;11.036;2023-11-19T09:39:47;32.72;;;5.28;;
5058;SDS011;2548;52.050;11.036;2023-11-19T09:42:14;27.33;;;6.60;;
5058;SDS011;2548;52.050;11.036;2023-11-19T09:44:43;22.25;;;4.53;;
5058;SDS011;2548;52.050;11.036;2023-11-19T09:47:14;32.45;;;6.60;;
5058;SDS011;2548;52.050;11.036;2023-11-19T09:49:45;19.17;;;4.45;;
5058;SDS011;2548;52.050;11.036;2023-11-19T09:52:13;26.25;;;7.80;;
5058;SDS011;2548;52.050;11.036;2023-11-19T09:54:44;15.57;;;5.32;;
5058;SDS011;2548;52.050;11.036;2023-11-19T09:57:14;37.35;;;7.72;;
5058;SDS011;2548;52.050;11.036;2023-11-19T09:59:43;29.40;;;4.93;;
5058;SDS011;2548;52.050;11.036;2023-11-19T10:02:13;20.25;;;4.70;;
5058;SDS011;2548;52.050;11.036;2023-11-19T10:04:45;30.25;;;5.32;;
5058;SDS011;2548;52.050;11.036;2023-11-19T10:07:15;17.23;;;4.53;;
5058;SDS011;2548;52.050;11.036;2023-11-19T10:09:48;37.80;;;6.50;;
5058;SDS011;2548;52.050;11.036;2023-11-19T10:12:18;27.70;;;6.80;;
5058;SDS011;2548;52.050;11.036;2023-11-19T10:14:48;23.95;;;5.03;;
5058;SDS011;2548;52.050;11.036;2023-11-19T10:17:19;26.92;;;5.28;;
5058;SDS011;2548;52.050;11.036;2023-11-19T10:19:57;32.17;;;7.55;;
5058;SDS011;2548;52.050;11.036;2023-11-19T10:22:25;24.80;;;6.68;;
5058;SDS011;2548;52.050;11.036;2023-11-19T10:24:56;22.70;;;6.05;;
5058;SDS011;2548;52.050;11.036;2023-11-19T10:27:23;23.65;;;7.13;;
5058;SDS011;2548;52.050;11.036;2023-11-19T10:29:52;26.90;;;6.95;;
5058;SDS011;2548;52.050;11.036;2023-11-19T10:32:22;21.27;;;7.68;;
5058;SDS011;2548;52.050;11.036;2023-11-19T10:34:50;18.92;;;5.40;;
5058;SDS011;2548;52.050;11.036;2023-11-19T10:37:40;24.17;;;5.57;;
5058;SDS011;2548;52.050;11.036;2023-11-19T10:40:08;38.20;;;6.50;;
5058;SDS011;2548;52.050;11.036;2023-11-19T10:42:36;25.63;;;6.70;;
5058;SDS011;2548;52.050;11.036;2023-11-19T10:45:04;21.38;;;6.82;;
5058;SDS011;2548;52.050;11.036;2023-11-19T10:47:47;30.55;;;5.95;;
5058;SDS011;2548;52.050;11.036;2023-11-19T10:50:16;33.03;;;7.40;;
5058;SDS011;2548;52.050;11.036;2023-11-19T10:52:44;27.17;;;5.90;;
5058;SDS011;2548;52.050;11.036;2023-11-19T10:55:14;23.50;;;5.45;;
5058;SDS011;2548;52.050;11.036;2023-11-19T10:57:47;19.63;;;5.93;;
5058;SDS011;2548;52.050;11.036;2023-11-19T11:00:17;24.45;;;5.30;;
5058;SDS011;2548;52.050;11.036;2023-11-19T11:02:49;22.55;;;5.55;;
5058;SDS011;2548;52.050;11.036;2023-11-19T11:05:22;20.85;;;5.30;;
5058;SDS011;2548;52.050;11.036;2023-11-19T11:07:51;20.85;;;5.70;;
5058;SDS011;2548;52.050;11.036;2023-11-19T11:10:21;28.85;;;5.20;;
5058;SDS011;2548;52.050;11.036;2023-11-19T11:12:55;27.17;;;5.10;;
5058;SDS011;2548;52.050;11.036;2023-11-19T11:15:26;16.25;;;4.57;;
5058;SDS011;2548;52.050;11.036;2023-11-19T11:17:59;27.85;;;5.45;;
5058;SDS011;2548;52.050;11.036;2023-11-19T11:20:31;18.45;;;4.18;;
5058;SDS011;2548;52.050;11.036;2023-11-19T11:23:14;19.10;;;5.13;;
5058;SDS011;2548;52.050;11.036;2023-11-19T11:26:09;18.80;;;5.38;;
5058;SDS011;2548;52.050;11.036;2023-11-19T11:28:54;23.58;;;6.43;;
5058;SDS011;2548;52.050;11.036;2023-11-19T11:31:34;40.58;;;9.07;;
5058;SDS011;2548;52.050;11.036;2023-11-19T11:34:31;29.27;;;5.38;;
5058;SDS011;2548;52.050;11.036;2023-11-19T11:37:24;20.90;;;4.55;;
5058;SDS011;2548;52.050;11.036;2023-11-19T11:39:57;17.17;;;4.97;;
5058;SDS011;2548;52.050;11.036;2023-11-19T11:42:35;21.88;;;5.22;;
5058;SDS011;2548;52.050;11.036;2023-11-19T11:45:04;15.63;;;3.67;;
5058;SDS011;2548;52.050;11.036;2023-11-19T11:51:00;14.38;;;5.93;;
5058;SDS011;2548;52.050;11.036;2023-11-19T11:53:30;26.13;;;6.05;;
5058;SDS011;2548;52.050;11.036;2023-11-19T11:56:04;20.40;;;4.97;;
5058;SDS011;2548;52.050;11.036;2023-11-19T11:58:34;16.95;;;5.63;;
5058;SDS011;2548;52.050;11.036;2023-11-19T12:01:04;25.13;;;5.05;;
5058;SDS011;2548;52.050;11.036;2023-11-19T12:03:46;19.17;;;4.63;;
5058;SDS011;2548;52.050;11.036;2023-11-19T12:06:15;25.38;;;5.00;;
5058;SDS011;2548;52.050;11.036;2023-11-19T12:08:51;17.65;;;5.72;;
5058;SDS011;2548;52.050;11.036;2023-11-19T12:11:20;16.05;;;4.60;;
5058;SDS011;2548;52.050;11.036;2023-11-19T12:13:54;16.73;;;5.60;;
5058;SDS011;2548;52.050;11.036;2023-11-19T12:16:26;24.35;;;4.97;;
5058;SDS011;2548;52.050;11.036;2023-11-19T12:18:55;17.88;;;4.90;;
5058;SDS011;2548;52.050;11.036;2023-11-19T12:21:29;21.90;;;5.22;;
5058;SDS011;2548;52.050;11.036;2023-11-19T12:24:02;26.10;;;5.50;;
5058;SDS011;2548;52.050;11.036;2023-11-19T12:26:34;13.82;;;4.53;;
5058;SDS011;2548;52.050;11.036;2023-11-19T12:29:06;23.90;;;5.80;;
5058;SDS011;2548;52.050;11.036;2023-11-19T12:31:34;19.30;;;4.82;;
5058;SDS011;2548;52.050;11.036;2023-11-19T12:34:08;22.92;;;5.85;;
5058;SDS011;2548;52.050;11.036;2023-11-19T12:36:40;19.85;;;6.90;;
5058;SDS011;2548;52.050;11.036;2023-11-19T12:39:10;28.25;;;5.82;;
5058;SDS011;2548;52.050;11.036;2023-11-19T12:41:52;20.17;;;5.53;;
5058;SDS011;2548;52.050;11.036;2023-11-19T12:44:20;40.03;;;14.48;;
5058;SDS011;2548;52.050;11.036;2023-11-19T12:47:08;24.25;;;6.72;;
5058;SDS011;2548;52.050;11.036;2023-11-19T12:49:37;31.63;;;5.32;;
5058;SDS011;2548;52.050;11.036;2023-11-19T12:52:13;29.60;;;9.57;;
5058;SDS011;2548;52.050;11.036;2023-11-19T12:54:45;32.90;;;6.90;;
5058;SDS011;2548;52.050;11.036;2023-11-19T12:57:12;20.42;;;7.82;;
5058;SDS011;2548;52.050;11.036;2023-11-19T12:59:42;35.53;;;7.07;;
5058;SDS011;2548;52.050;11.036;2023-11-19T13:02:21;26.40;;;6.13;;
5058;SDS011;2548;52.050;11.036;2023-11-19T13:04:49;25.23;;;6.40;;
5058;SDS011;2548;52.050;11.036;2023-11-19T13:07:22;24.77;;;5.45;;
5058;SDS011;2548;52.050;11.036;2023-11-19T13:09:51;27.23;;;4.43;;
5058;SDS011;2548;52.050;11.036;2023-11-19T13:12:30;23.05;;;9.00;;
5058;SDS011;2548;52.050;11.036;2023-11-19T13:14:58;23.55;;;5.90;;
5058;SDS011;2548;52.050;11.036;2023-11-19T13:17:25;22.38;;;5.88;;
5058;SDS011;2548;52.050;11.036;2023-11-19T13:19:56;16.75;;;4.95;;
5058;SDS011;2548;52.050;11.036;2023-11-19T13:22:23;26.60;;;5.30;;
5058;SDS011;2548;52.050;11.036;2023-11-19T13:24:56;20.60;;;5.45;;
5058;SDS011;2548;52.050;11.036;2023-11-19T13:27:26;17.45;;;5.75;;
5058;SDS011;2548;52.050;11.036;2023-11-19T13:29:54;22.23;;;5.30;;
5058;SDS011;2548;52.050;11.036;2023-11-19T13:32:24;18.40;;;4.75;;
5058;SDS011;2548;52.050;11.036;2023-11-19T13:34:52;18.25;;;5.20;;
5058;SDS011;2548;52.050;11.036;2023-11-19T13:37:19;24.23;;;4.70;;
5058;SDS011;2548;52.050;11.036;2023-11-19T13:40:00;32.53;;;5.78;;
5058;SDS011;2548;52.050;11.036;2023-11-19T13:42:39;32.65;;;5.35;;
5058;SDS011;2548;52.050;11.036;2023-11-19T13:45:10;25.15;;;4.95;;
5058;SDS011;2548;52.050;11.036;2023-11-19T13:47:39;35.50;;;5.32;;
5058;SDS011;2548;52.050;11.036;2023-11-19T13:50:08;22.40;;;4.65;;
5058;SDS011;2548;52.050;11.036;2023-11-19T13:52:36;21.10;;;5.35;;
5058;SDS011;2548;52.050;11.036;2023-11-19T13:55:07;26.20;;;6.75;;
5058;SDS011;2548;52.050;11.036;2023-11-19T13:57:36;25.33;;;6.43;;
5058;SDS011;2548;52.050;11.036;2023-11-19T14:00:13;15.80;;;3.63;;
5058;SDS011;2548;52.050;11.036;2023-11-19T14:02:46;16.90;;;4.95;;
5058;SDS011;2548;52.050;11.036;2023-11-19T14:05:14;26.20;;;6.45;;
5058;SDS011;2548;52.050;11.036;2023-11-19T14:07:46;24.25;;;5.78;;
5058;SDS011;2548;52.050;11.036;2023-11-19T14:10:15;15.15;;;5.40;;
5058;SDS011;2548;52.050;11.036;2023-11-19T14:12:45;22.60;;;6.60;;
5058;SDS011;2548;52.050;11.036;2023-11-19T14:15:15;23.73;;;6.07;;
5058;SDS011;2548;52.050;11.036;2023-11-19T14:17:43;28.42;;;5.93;;
5058;SDS011;2548;52.050;11.036;2023-11-19T14:20:12;22.85;;;5.00;;
5058;SDS011;2548;52.050;11.036;2023-11-19T14:22:47;21.48;;;4.80;;
5058;SDS011;2548;52.050;11.036;2023-11-19T14:25:17;30.17;;;4.40;;
5058;SDS011;2548;52.050;11.036;2023-11-19T14:27:45;21.30;;;5.25;;
5058;SDS011;2548;52.050;11.036;2023-11-19T14:30:13;22.60;;;4.72;;
5058;SDS011;2548;52.050;11.036;2023-11-19T14:32:44;18.95;;;3.70;;
5058;SDS011;2548;52.050;11.036;2023-11-19T14:35:14;16.75;;;4.82;;
5058;SDS011;2548;52.050;11.036;2023-11-19T14:37:41;22.45;;;4.68;;
5058;SDS011;2548;52.050;11.036;2023-11-19T14:40:12;21.20;;;4.47;;
5058;SDS011;2548;52.050;11.036;2023-11-19T14:42:48;20.15;;;4.95;;
5058;SDS011;2548;52.050;11.036;2023-11-19T14:45:21;28.55;;;5.00;;
5058;SDS011;2548;52.050;11.036;2023-11-19T14:47:54;21.52;;;5.50;;
5058;SDS011;2548;52.050;11.036;2023-11-19T14:50:23;18.08;;;6.00;;
5058;SDS011;2548;52.050;11.036;2023-11-19T14:52:50;21.05;;;5.97;;
5058;SDS011;2548;52.050;11.036;2023-11-19T14:55:17;32.40;;;6.60;;
5058;SDS011;2548;52.050;11.036;2023-11-19T14:57:46;29.70;;;5.38;;
5058;SDS011;2548;52.050;11.036;2023-11-19T15:00:23;20.10;;;4.63;;
5058;SDS011;2548;52.050;11.036;2023-11-19T15:02:54;22.08;;;5.30;;
5058;SDS011;2548;52.050;11.036;2023-11-19T15:05:21;30.85;;;4.22;;
5058;SDS011;2548;52.050;11.036;2023-11-19T15:07:49;19.00;;;5.38;;
5058;SDS011;2548;52.050;11.036;2023-11-19T15:10:16;26.58;;;5.18;;
5058;SDS011;2548;52.050;11.036;2023-11-19T15:12:44;17.20;;;3.60;;
5058;SDS011;2548;52.050;11.036;2023-11-19T15:15:16;19.42;;;4.20;;
5058;SDS011;2548;52.050;11.036;2023-11-19T15:17:43;17.42;;;3.80;;
5058;SDS011;2548;52.050;11.036;2023-11-19T15:20:11;39.63;;;5.80;;